createdAt,value
2019-01-21T00:01:32.247Z,95191.81
2019-01-21T00:04:02.286Z,95195.46
2019-01-21T00:06:33.730Z,95195.72
2019-01-21T00:09:05.155Z,95192.40
2019-01-21T00:11:35.077Z,95191.14
2019-01-21T00:14:05.689Z,95193.63
2019-01-21T00:16:35.772Z,95197.04
2019-01-21T00:19:05.698Z,95191.30
2019-01-21T00:21:35.722Z,95191.20
2019-01-21T00:24:05.978Z,95188.05
2019-01-21T00:26:36.009Z,95196.61
2019-01-21T00:29:06.196Z,95199.03
2019-01-21T00:31:36.222Z,95192.03
2019-01-21T00:34:06.134Z,95195.34
2019-01-21T00:36:36.081Z,95202.57
2019-01-21T00:39:07.737Z,95197.96
2019-01-21T00:41:37.771Z,95192.19
2019-01-21T00:44:07.712Z,95198.91
2019-01-21T00:46:37.752Z,95202.47
2019-01-21T00:49:07.653Z,95199.47
2019-01-21T00:51:37.681Z,95204.64
2019-01-21T00:54:07.652Z,95190.50
2019-01-21T00:56:37.609Z,95197.38
2019-01-21T00:59:07.645Z,95199.80
2019-01-21T01:01:37.633Z,95199.57
2019-01-21T01:04:07.667Z,95207.28
2019-01-21T01:06:37.579Z,95203.41
2019-01-21T01:09:08.544Z,95206.13
2019-01-21T01:11:38.540Z,95204.75
2019-01-21T01:14:08.567Z,95206.66
2019-01-21T01:16:38.469Z,95206.34
2019-01-21T01:19:08.409Z,95206.83
2019-01-21T01:21:38.368Z,95204.50
2019-01-21T01:24:08.276Z,95200.72
2019-01-21T01:26:38.318Z,95202.55
2019-01-21T01:29:08.253Z,95205.20
2019-01-21T01:31:38.331Z,95202.28
2019-01-21T01:34:08.301Z,95206.37
2019-01-21T01:36:38.330Z,95205.78
2019-01-21T01:39:08.616Z,95198.89
2019-01-21T01:41:38.605Z,95200.99
2019-01-21T01:44:08.667Z,95202.23
2019-01-21T01:46:38.702Z,95200.07
2019-01-21T01:49:08.785Z,95198.31
2019-01-21T01:51:38.831Z,95201.53
2019-01-21T01:54:08.853Z,95201.66
2019-01-21T01:56:38.837Z,95204.09
2019-01-21T01:59:08.915Z,95200.63
2019-01-21T02:01:38.772Z,95200.95
2019-01-21T02:04:08.796Z,95199.64
2019-01-21T02:06:38.775Z,95196.50
2019-01-21T02:09:09.008Z,95196.74
2019-01-21T02:11:39.375Z,95191.14
2019-01-21T02:14:09.374Z,95196.38
2019-01-21T02:16:39.390Z,95191.85
2019-01-21T02:19:09.421Z,95193.06
2019-01-21T02:21:41.274Z,95193.79
2019-01-21T02:24:14.072Z,95199.39
2019-01-21T02:27:01.353Z,95196.63
2019-01-21T02:30:05.121Z,95197.14
2019-01-21T02:33:08.173Z,95203.29
2019-01-21T02:36:05.484Z,95192.61
2019-01-21T02:39:16.232Z,95196.73
2019-01-21T02:42:04.912Z,95192.16
2019-01-21T02:45:05.005Z,95196.76
2019-01-21T02:48:00.251Z,95201.67
2019-01-21T02:50:57.354Z,95195.66
2019-01-21T02:53:50.781Z,95200.41
2019-01-21T02:56:49.568Z,95204.19
2019-01-21T02:59:36.029Z,95190.63
2019-01-21T03:02:31.671Z,95195.34
2019-01-21T03:21:53.599Z,95182.69
2019-01-21T03:25:03.492Z,95184.86
2019-01-21T03:28:11.709Z,95185.66
2019-01-21T03:31:34.042Z,95186.22
2019-01-21T03:34:39.237Z,95187.85
2019-01-21T03:37:54.006Z,95187.64
2019-01-21T03:40:55.754Z,95188.77
2019-01-21T03:44:08.753Z,95186.48
2019-01-21T03:47:12.534Z,95186.45
2019-01-21T03:50:26.354Z,95189.63
2019-01-21T03:53:17.012Z,95187.52
2019-01-21T03:55:49.758Z,95196.16
2019-01-21T03:59:03.672Z,95197.91
2019-01-21T04:02:11.069Z,95188.68
2019-01-21T04:05:21.526Z,95198.94
2019-01-21T04:08:13.267Z,95193.43
2019-01-21T04:11:09.914Z,95195.24
2019-01-21T04:14:32.867Z,95191.13
2019-01-21T04:18:14.293Z,95200.83
2019-01-21T04:21:25.231Z,95197.25
2019-01-21T04:24:29.381Z,95201.89
2019-01-21T04:27:22.333Z,95194.59
2019-01-21T04:30:09.782Z,95197.02
2019-01-21T04:33:05.978Z,95196.56
2019-01-21T04:36:10.019Z,95194.78
2019-01-21T04:38:59.649Z,95190.55
2019-01-21T04:41:46.215Z,95194.34
2019-01-21T04:45:02.981Z,95197.59
2019-01-21T04:48:19.693Z,95199.13
2019-01-21T04:51:21.431Z,95195.63
2019-01-21T04:54:26.936Z,95198.71
2019-01-21T04:57:30.359Z,95200.41
2019-01-21T05:00:27.087Z,95205.45
2019-01-21T05:03:21.298Z,95206.03
2019-01-21T05:06:22.607Z,95212.78
2019-01-21T05:09:30.240Z,95201.70
2019-01-21T05:12:23.884Z,95207.87
2019-01-21T05:15:32.701Z,95211.42
2019-01-21T05:18:31.526Z,95201.19
2019-01-21T05:21:39.747Z,95209.41
2019-01-21T05:24:43.037Z,95205.45
2019-01-21T05:27:36.066Z,95208.27
2019-01-21T05:31:02.428Z,95214.70
2019-01-21T05:33:53.702Z,95208.61
2019-01-21T05:36:55.029Z,95214.02
2019-01-21T05:40:20.907Z,95220.63
2019-01-21T05:43:40.189Z,95229.44
2019-01-21T05:46:44.783Z,95220.13
2019-01-21T05:49:35.852Z,95220.19
2019-01-21T05:52:30.036Z,95225.80
2019-01-21T05:55:23.350Z,95231.66
2019-01-21T05:58:18.799Z,95227.44
2019-01-21T06:01:30.344Z,95235.16
2019-01-21T06:04:29.712Z,95237.80
2019-01-21T06:07:49.208Z,95247.65
2019-01-21T06:10:29.651Z,95247.98
2019-01-21T06:13:23.269Z,95244.08
2019-01-21T06:16:46.238Z,95248.55
2019-01-21T06:19:25.894Z,95248.88
2019-01-21T06:22:24.997Z,95249.80
2019-01-21T06:25:38.864Z,95247.28
2019-01-21T06:28:25.608Z,95246.38
2019-01-21T06:31:38.774Z,95248.20
2019-01-21T06:34:28.732Z,95250.15
2019-01-21T06:37:28.870Z,95253.34
2019-01-21T06:40:39.076Z,95250.58
2019-01-21T06:44:11.480Z,95255.65
2019-01-21T06:47:17.563Z,95256.11
2019-01-21T06:50:08.536Z,95261.64
2019-01-21T06:53:06.970Z,95257.30
2019-01-21T06:56:10.044Z,95257.52
2019-01-21T06:59:21.301Z,95268.11
2019-01-21T07:05:35.313Z,95270.17
2019-01-21T07:08:45.149Z,95274.08
2019-01-21T07:12:05.033Z,95282.95
2019-01-21T07:15:27.071Z,95275.77
2019-01-21T07:18:17.003Z,95286.03
2019-01-21T07:21:22.903Z,95286.39
2019-01-21T07:24:28.856Z,95286.67
2019-01-21T07:27:37.332Z,95288.09
2019-01-21T07:30:23.799Z,95291.08
2019-01-21T07:33:43.653Z,95290.39
2019-01-21T07:36:34.585Z,95290.18
2019-01-21T07:39:43.533Z,95292.17
2019-01-21T07:42:45.594Z,95293.95
2019-01-21T07:45:49.982Z,95290.87
2019-01-21T07:49:00.686Z,95289.50
2019-01-21T07:52:07.030Z,95295.09
2019-01-21T07:55:21.290Z,95287.68
2019-01-21T07:58:29.036Z,95292.70
2019-01-21T08:01:19.357Z,95293.59
2019-01-21T08:04:19.632Z,95294.67
2019-01-21T08:07:27.382Z,95295.81
2019-01-21T08:10:41.386Z,95288.30
2019-01-21T08:13:42.098Z,95294.80
2019-01-21T08:17:02.048Z,95292.70
2019-01-21T08:20:25.375Z,95292.00
2019-01-21T08:23:35.468Z,95297.97
2019-01-21T08:26:58.707Z,95300.25
2019-01-21T08:29:36.491Z,95310.67
2019-01-21T08:32:41.617Z,95316.83
2019-01-21T08:35:40.086Z,95308.55
2019-01-21T08:38:48.903Z,95311.19
2019-01-21T08:42:06.211Z,95313.66
2019-01-21T08:45:08.178Z,95316.88
2019-01-21T08:48:20.929Z,95315.88
2019-01-21T08:51:37.992Z,95317.10
2019-01-21T08:54:43.442Z,95318.19
2019-01-21T08:57:33.811Z,95311.88
2019-01-21T09:00:40.810Z,95322.82
2019-01-21T09:04:08.645Z,95314.58
2019-01-21T09:07:07.059Z,95312.30
2019-01-21T09:09:51.834Z,95319.41
2019-01-21T09:13:00.343Z,95317.47
2019-01-21T09:15:53.263Z,95316.62
2019-01-21T09:19:10.070Z,95319.19
2019-01-21T09:21:52.278Z,95330.56
2019-01-21T09:24:59.483Z,95327.86
2019-01-21T09:28:06.610Z,95323.73
2019-01-21T09:31:17.482Z,95330.16
2019-01-21T09:34:15.411Z,95328.77
2019-01-21T09:37:19.689Z,95338.02
2019-01-21T09:40:33.631Z,95333.23
2019-01-21T09:43:44.664Z,95339.84
2019-01-21T09:46:43.935Z,95340.00
2019-01-21T09:49:12.838Z,95336.34
2019-01-21T09:51:46.518Z,95345.81
2019-01-21T09:54:16.553Z,95346.63
2019-01-21T09:56:48.424Z,95344.54
2019-01-21T09:59:19.867Z,95343.02
2019-01-21T10:01:52.865Z,95340.08
2019-01-21T10:04:36.785Z,95337.33
2019-01-21T10:07:19.706Z,95340.98
2019-01-21T10:10:06.813Z,95339.55
2019-01-21T10:13:20.218Z,95332.67
2019-01-21T10:16:19.141Z,95333.33
2019-01-21T10:19:14.884Z,95331.18
2019-01-21T10:22:20.319Z,95329.52
2019-01-21T10:25:27.108Z,95323.55
2019-01-21T10:28:45.144Z,95326.30
2019-01-21T10:31:59.431Z,95332.71
2019-01-21T10:35:00.554Z,95327.92
2019-01-21T10:38:01.767Z,95312.72
2019-01-21T10:41:16.114Z,95314.80
2019-01-21T10:44:29.396Z,95320.92
2019-01-21T10:47:33.076Z,95309.81
2019-01-21T10:50:36.102Z,95309.05
2019-01-21T10:53:31.506Z,95307.42
2019-01-21T10:56:25.546Z,95308.84
2019-01-21T10:59:14.609Z,95301.84
2019-01-21T11:02:22.816Z,95299.66
2019-01-21T11:05:30.429Z,95297.78
2019-01-21T11:08:39.715Z,95295.17
2019-01-21T11:11:39.074Z,95302.48
2019-01-21T11:14:50.953Z,95292.89
2019-01-21T11:17:48.151Z,95285.39
2019-01-21T11:20:44.771Z,95289.88
2019-01-21T11:24:08.051Z,95291.63
2019-01-21T11:27:16.496Z,95284.38
2019-01-21T11:30:18.194Z,95278.75
2019-01-21T11:33:26.437Z,95280.03
2019-01-21T11:36:46.420Z,95277.83
2019-01-21T11:39:56.437Z,95282.72
2019-01-21T11:42:51.093Z,95278.53
2019-01-21T11:45:59.258Z,95274.61
2019-01-21T11:48:59.170Z,95269.32
2019-01-21T11:52:17.545Z,95279.19
2019-01-21T11:55:38.207Z,95266.16
2019-01-21T11:58:28.247Z,95269.48
2019-01-21T12:01:37.599Z,95264.03
2019-01-21T12:04:29.143Z,95266.05
2019-01-21T12:07:21.489Z,95262.94
2019-01-21T12:10:35.671Z,95272.27
2019-01-21T12:13:49.525Z,95269.36
2019-01-21T12:17:02.469Z,95267.22
2019-01-21T12:19:43.609Z,95269.78
2019-01-21T12:22:56.658Z,95257.01
2019-01-21T12:25:37.408Z,95259.32
2019-01-21T12:28:40.196Z,95255.76
2019-01-21T12:31:30.917Z,95253.27
2019-01-21T12:34:21.242Z,95259.75
2019-01-21T12:37:02.590Z,95254.11
2019-01-21T12:40:20.514Z,95251.84
2019-01-21T12:43:27.574Z,95250.80
2019-01-21T12:46:24.971Z,95249.83
2019-01-21T12:49:25.465Z,95248.36
2019-01-21T12:52:07.509Z,95238.98
2019-01-21T12:55:15.663Z,95238.70
2019-01-21T12:58:20.421Z,95247.55
2019-01-21T13:01:08.755Z,95237.01
2019-01-21T13:04:15.874Z,95236.55
2019-01-21T13:07:25.292Z,95230.63
2019-01-21T13:10:40.149Z,95231.17
2019-01-21T13:13:40.732Z,95229.56
2019-01-21T13:16:46.536Z,95221.72
2019-01-21T13:19:32.085Z,95224.58
2019-01-21T13:22:26.969Z,95221.00
2019-01-21T13:25:29.857Z,95213.56
2019-01-21T13:28:32.689Z,95219.91
2019-01-21T13:31:55.697Z,95222.86
2019-01-21T13:35:04.938Z,95226.59
2019-01-21T13:37:54.863Z,95222.63
2019-01-21T13:40:51.969Z,95216.46
2019-01-21T13:44:18.291Z,95213.86
2019-01-21T13:47:06.440Z,95215.09
2019-01-21T13:50:01.179Z,95216.23
2019-01-21T13:53:16.423Z,95211.98
2019-01-21T13:56:04.296Z,95209.72
2019-01-21T13:59:16.711Z,95219.33
2019-01-21T14:01:53.521Z,95211.44
2019-01-21T14:04:50.497Z,95213.25
2019-01-21T14:07:44.570Z,95214.78
2019-01-21T14:10:45.515Z,95211.02
2019-01-21T14:13:39.971Z,95211.46
2019-01-21T14:17:06.163Z,95208.80
2019-01-21T14:20:29.819Z,95214.09
2019-01-21T14:23:29.203Z,95215.09
2019-01-21T14:26:20.581Z,95211.62
2019-01-21T14:29:30.716Z,95217.39
2019-01-21T14:32:23.397Z,95219.45
2019-01-21T14:35:05.000Z,95226.91
2019-01-21T14:38:16.858Z,95223.13
2019-01-21T14:41:25.029Z,95220.86
2019-01-21T14:44:39.688Z,95227.27
2019-01-21T14:47:41.233Z,95220.91
2019-01-21T14:50:50.906Z,95219.63
2019-01-21T14:53:44.532Z,95223.72
2019-01-21T14:56:45.094Z,95223.60
2019-01-21T14:59:32.720Z,95219.64
2019-01-21T15:02:32.749Z,95215.25
2019-01-21T15:05:26.762Z,95224.06
2019-01-21T15:08:23.986Z,95218.97
2019-01-21T15:11:40.836Z,95222.13
2019-01-21T15:14:41.957Z,95216.17
2019-01-21T15:17:47.187Z,95223.06
2019-01-21T15:20:39.071Z,95224.36
2019-01-21T15:23:41.054Z,95219.64
2019-01-21T15:26:36.425Z,95218.73
2019-01-21T15:29:52.210Z,95227.98
2019-01-21T15:32:59.311Z,95220.55
2019-01-21T15:35:44.589Z,95230.69
2019-01-21T15:38:52.400Z,95229.35
2019-01-21T15:41:53.705Z,95227.75
2019-01-21T15:45:10.809Z,95234.84
2019-01-21T15:48:18.787Z,95232.17
2019-01-21T15:51:31.596Z,95229.39
2019-01-21T15:54:36.994Z,95230.83
2019-01-21T15:57:38.704Z,95225.94
2019-01-21T16:00:49.913Z,95229.54
2019-01-21T16:03:57.879Z,95226.92
2019-01-21T16:06:54.788Z,95221.89
2019-01-21T16:09:36.529Z,95222.13
2019-01-21T16:13:09.090Z,95227.62
2019-01-21T16:16:15.007Z,95231.84
2019-01-21T16:18:58.841Z,95223.27
2019-01-21T16:22:08.865Z,95225.67
2019-01-21T16:24:50.386Z,95222.48
2019-01-21T16:27:55.971Z,95222.62
2019-01-21T16:30:32.102Z,95221.47
2019-01-21T16:34:01.309Z,95213.47
2019-01-21T16:37:15.691Z,95224.44
2019-01-21T16:40:35.925Z,95220.90
2019-01-21T16:43:05.922Z,95215.19
2019-01-21T16:45:35.966Z,95216.67
2019-01-21T16:48:06.161Z,95216.67
2019-01-21T16:50:36.074Z,95215.06
2019-01-21T16:53:06.157Z,95222.02
2019-01-21T16:55:36.003Z,95227.39
2019-01-21T16:58:06.354Z,95222.84
2019-01-21T17:00:36.316Z,95223.08
2019-01-21T17:03:06.266Z,95219.28
2019-01-21T17:05:36.263Z,95224.09
2019-01-21T17:08:06.424Z,95221.70
2019-01-21T17:10:39.209Z,95225.52
2019-01-21T17:13:08.214Z,95230.16
2019-01-21T17:15:38.245Z,95225.93
2019-01-21T17:18:08.203Z,95222.84
2019-01-21T17:20:38.172Z,95216.33
2019-01-21T17:23:08.236Z,95221.78
2019-01-21T17:25:38.182Z,95210.52
2019-01-21T17:28:08.218Z,95206.27
2019-01-21T17:30:38.153Z,95213.58
2019-01-21T17:33:08.129Z,95212.12
2019-01-21T17:35:38.117Z,95212.27
2019-01-21T17:38:08.168Z,95210.13
2019-01-21T17:40:38.208Z,95209.67
2019-01-21T17:43:08.197Z,95203.05
2019-01-21T17:45:38.295Z,95204.63
2019-01-21T17:48:08.330Z,95207.75
2019-01-21T17:50:38.296Z,95210.52
2019-01-21T17:53:09.841Z,95208.64
2019-01-21T17:55:39.881Z,95201.33
2019-01-21T17:58:09.919Z,95200.75
2019-01-21T18:00:39.950Z,95202.58
2019-01-21T18:03:09.914Z,95197.80
2019-01-21T18:05:39.977Z,95190.67
2019-01-21T18:08:13.284Z,95196.56
2019-01-21T18:10:43.300Z,95198.38
2019-01-21T18:13:13.343Z,95196.78
2019-01-21T18:15:43.425Z,95197.47
2019-01-21T18:18:13.509Z,95199.30
2019-01-21T18:20:43.497Z,95201.14
2019-01-21T18:23:13.481Z,95203.37
2019-01-21T18:25:43.486Z,95197.77
2019-01-21T18:28:13.505Z,95193.34
2019-01-21T18:30:43.978Z,95201.11
2019-01-21T18:33:14.093Z,95189.67
2019-01-21T18:35:44.105Z,95196.06
2019-01-21T18:38:14.026Z,95197.53
2019-01-21T18:40:44.116Z,95198.09
2019-01-21T18:43:14.109Z,95205.34
2019-01-21T18:45:44.493Z,95200.48
2019-01-21T18:48:14.551Z,95209.03
2019-01-21T18:50:44.648Z,95202.73
2019-01-21T18:53:14.745Z,95203.48
2019-01-21T18:55:44.771Z,95200.06
2019-01-21T18:58:14.696Z,95198.09
2019-01-21T19:00:44.819Z,95188.89
2019-01-21T19:03:14.725Z,95190.25
2019-01-21T19:05:44.837Z,95187.50
2019-01-21T19:08:14.870Z,95187.47
2019-01-21T19:10:44.843Z,95192.41
2019-01-21T19:13:14.857Z,95185.69
2019-01-21T19:15:44.828Z,95190.02
2019-01-21T19:18:14.782Z,95188.98
2019-01-21T19:20:44.719Z,95188.52
2019-01-21T19:23:14.870Z,95189.48
2019-01-21T19:25:44.941Z,95192.97
2019-01-21T19:28:14.948Z,95191.61
2019-01-21T19:30:44.810Z,95181.98
2019-01-21T19:33:14.759Z,95189.63
2019-01-21T19:35:44.813Z,95191.75
2019-01-21T19:38:16.000Z,95183.72
2019-01-21T19:40:45.935Z,95184.06
2019-01-21T19:43:15.984Z,95177.34
2019-01-21T19:45:45.969Z,95183.29
2019-01-21T19:48:15.935Z,95183.63
2019-01-21T19:50:46.048Z,95181.20
2019-01-21T19:53:15.996Z,95182.83
2019-01-21T19:55:46.093Z,95183.39
2019-01-21T19:58:16.154Z,95184.41
2019-01-21T20:00:46.134Z,95187.86
2019-01-21T20:03:16.128Z,95191.30
2019-01-21T20:05:46.193Z,95197.95
2019-01-21T20:08:16.264Z,95196.55
2019-01-21T20:10:46.312Z,95200.84
2019-01-21T20:13:16.364Z,95197.66
2019-01-21T20:15:46.367Z,95190.69
2019-01-21T20:18:16.429Z,95186.33
2019-01-21T20:20:47.540Z,95181.19
2019-01-21T20:23:17.529Z,95186.66
2019-01-21T20:25:48.549Z,95194.56
2019-01-21T20:28:18.736Z,95189.88
2019-01-21T20:30:49.694Z,95191.26
2019-01-21T20:33:19.791Z,95184.87
2019-01-21T20:35:49.804Z,95189.20
2019-01-21T20:38:19.899Z,95189.64
2019-01-21T20:40:49.890Z,95194.01
2019-01-21T20:43:19.826Z,95196.64
2019-01-21T20:45:50.792Z,95197.91
2019-01-21T20:48:20.859Z,95191.61
2019-01-21T20:50:50.839Z,95191.49
2019-01-21T20:53:20.902Z,95194.92
2019-01-21T20:55:50.956Z,95195.50
2019-01-21T20:58:20.806Z,95194.74
2019-01-21T21:00:50.791Z,95193.60
2019-01-21T21:03:20.903Z,95197.03
2019-01-21T21:05:52.365Z,95194.41
2019-01-21T21:08:22.530Z,95197.72
2019-01-21T21:10:52.732Z,95191.50
2019-01-21T21:13:22.896Z,95185.83
2019-01-21T21:15:53.121Z,95188.64
2019-01-21T21:18:23.265Z,95191.82
2019-01-21T21:20:53.450Z,95199.94
2019-01-21T21:23:23.552Z,95198.00
2019-01-21T21:25:53.752Z,95191.72
2019-01-21T21:28:23.878Z,95196.64
2019-01-21T21:30:54.161Z,95191.96
2019-01-21T21:33:24.294Z,95198.28
2019-01-21T21:35:54.532Z,95194.98
2019-01-21T21:38:24.659Z,95188.66
2019-01-21T21:40:54.873Z,95188.47
2019-01-21T21:43:27.497Z,95190.64
2019-01-21T21:45:57.704Z,95187.23
2019-01-21T21:48:31.731Z,95188.26
2019-01-21T21:50:59.752Z,95189.52
2019-01-21T21:53:29.924Z,95183.23
2019-01-21T21:56:00.122Z,95185.96
2019-01-21T21:58:30.259Z,95179.09
2019-01-21T22:01:00.562Z,95178.31
2019-01-21T22:03:30.761Z,95183.27
2019-01-21T22:06:01.182Z,95179.50
2019-01-21T22:08:31.418Z,95179.51
2019-01-21T22:11:01.671Z,95177.92
2019-01-21T22:13:31.847Z,95174.49
2019-01-21T22:16:01.998Z,95177.61
2019-01-21T22:18:32.402Z,95183.52
2019-01-21T22:21:02.672Z,95177.16
2019-01-21T22:23:32.854Z,95175.16
2019-01-21T22:26:02.965Z,95172.88
2019-01-21T22:28:32.841Z,95177.53
2019-01-21T22:31:03.029Z,95171.23
2019-01-21T22:33:32.912Z,95176.58
2019-01-21T22:36:02.885Z,95164.62
2019-01-21T22:38:33.033Z,95161.84
2019-01-21T22:41:03.082Z,95165.46
2019-01-21T22:43:33.020Z,95154.19
2019-01-21T22:46:02.977Z,95150.05
2019-01-21T22:48:33.008Z,95159.50
2019-01-21T22:51:03.199Z,95159.16
2019-01-21T22:53:33.105Z,95162.95
2019-01-21T22:56:03.152Z,95162.69
2019-01-21T22:58:33.009Z,95156.61
2019-01-21T23:01:29.788Z,95162.46
2019-01-21T23:03:59.758Z,95165.23
2019-01-21T23:06:29.791Z,95155.91
2019-01-21T23:08:59.763Z,95158.19
2019-01-21T23:11:30.113Z,95155.34
2019-01-21T23:14:00.207Z,95162.72
2019-01-21T23:16:30.227Z,95154.63
2019-01-21T23:19:00.395Z,95151.93
2019-01-21T23:21:30.266Z,95149.22
2019-01-21T23:24:00.210Z,95146.67
2019-01-21T23:26:30.186Z,95147.23
2019-01-21T23:29:00.226Z,95153.64
2019-01-21T23:31:31.203Z,95155.81
2019-01-21T23:34:01.125Z,95157.18
2019-01-21T23:36:31.084Z,95153.87
2019-01-21T23:39:01.484Z,95150.25
2019-01-21T23:41:32.425Z,95155.81
2019-01-21T23:44:02.438Z,95147.53
2019-01-21T23:46:32.774Z,95143.31
2019-01-21T23:49:05.660Z,95139.20
2019-01-21T23:51:36.085Z,95130.19
2019-01-21T23:54:07.003Z,95131.48
2019-01-21T23:56:36.959Z,95134.83
2019-01-21T23:59:07.021Z,95121.19
